This is the latest recevied weather packets stored in our database for station/object SV2RCS-13. If no packets are shown the sender has not sent any weather packets the latest 10 day(s).
| Time | Temp. | Humidity | Pressure | Rain* | Wind** | Luminosity | Snow |
|---|---|---|---|---|---|---|---|
| 1777437416 | 18.33° C | 39% | 1015.8 hPa | - | - | - | - |
| 1777436817 | 15.56° C | 53% | 1016 hPa | - | - | - | - |
| 1777436217 | 15° C | 46% | 1016.4 hPa | - | - | - | - |
| 1777435617 | 13.33° C | 56% | 1016.7 hPa | - | - | - | - |
| 1777435017 | 12.78° C | 56% | 1016.6 hPa | - | - | - | - |
| 1777434416 | 12.78° C | 57% | 1016.7 hPa | - | - | - | - |
| 1777433817 | 12.78° C | 58% | 1016.6 hPa | - | - | - | - |
| 1777433216 | 12.78° C | 57% | 1016.5 hPa | - | - | - | - |
| 1777432617 | 12.78° C | 56% | 1016.5 hPa | - | - | - | - |
| 1777432020 | 12.78° C | 56% | 1016.5 hPa | - | - | - | - |
| 1777431417 | 12.78° C | 56% | 1016.6 hPa | - | - | - | - |
| 1777430817 | 12.78° C | 56% | 1016.5 hPa | - | - | - | - |
| 1777430217 | 12.78° C | 56% | 1016.5 hPa | - | - | - | - |
| 1777429616 | 13.33° C | 55% | 1016.5 hPa | - | - | - | - |
| 1777429016 | 12.78° C | 55% | 1016.7 hPa | - | - | - | - |
| 1777428416 | 12.78° C | 56% | 1016.6 hPa | - | - | - | - |
| 1777427818 | 13.33° C | 55% | 1016.6 hPa | - | - | - | - |
| 1777427216 | 13.33° C | 54% | 1016.6 hPa | - | - | - | - |
| 1777426616 | 13.33° C | 54% | 1016.6 hPa | - | - | - | - |
| 1777426016 | 12.78° C | 54% | 1016.7 hPa | - | - | - | - |
| 1777425416 | 13.33° C | 53% | 1016.5 hPa | - | - | - | - |
| 1777424817 | 13.33° C | 53% | 1016.5 hPa | - | - | - | - |
| 1777424217 | 13.33° C | 53% | 1016.5 hPa | - | - | - | - |
| 1777423617 | 13.33° C | 53% | 1016.4 hPa | - | - | - | - |
| 1777423017 | 13.33° C | 52% | 1016.4 hPa | - | - | - | - |
* Rain since midnight (hover to see other rain measurements)
** Current wind speed in m/s (hover to see current wind gust speed)